createdAt,value
2023-03-24T00:00:18.640Z,14.20
2023-03-24T00:03:04.983Z,14.20
2023-03-24T00:05:58.564Z,14.20
2023-03-24T00:08:47.785Z,14.30
2023-03-24T00:11:34.577Z,14.40
2023-03-24T00:14:21.628Z,14.50
2023-03-24T00:17:12.649Z,14.60
2023-03-24T00:19:58.213Z,14.70
2023-03-24T00:22:49.705Z,14.70
2023-03-24T00:25:40.113Z,14.60
2023-03-24T00:28:25.986Z,14.30
2023-03-24T00:31:15.256Z,14.60
2023-03-24T00:34:02.857Z,14.40
2023-03-24T00:36:49.160Z,14.30
2023-03-24T00:39:35.206Z,14.50
2023-03-24T00:42:22.202Z,14.50
2023-03-24T00:45:09.453Z,14.40
2023-03-24T00:47:57.901Z,14.20
2023-03-24T00:50:45.923Z,14.40
2023-03-24T00:53:31.971Z,14.40
2023-03-24T00:56:17.669Z,14.30
2023-03-24T00:59:04.288Z,14.30
2023-03-24T01:01:50.226Z,14.30
2023-03-24T01:04:37.791Z,14.60
2023-03-24T01:07:24.733Z,14.50
2023-03-24T01:10:13.069Z,14.60
2023-03-24T01:13:00.237Z,14.70
2023-03-24T01:15:46.075Z,14.90
2023-03-24T01:18:31.622Z,14.90
2023-03-24T01:21:18.795Z,14.80
2023-03-24T01:24:05.931Z,14.90
2023-03-24T01:26:52.345Z,14.70
2023-03-24T01:29:38.312Z,14.60
2023-03-24T01:32:24.377Z,14.70
2023-03-24T01:35:11.285Z,14.90
2023-03-24T01:37:59.228Z,14.90
2023-03-24T01:40:47.253Z,14.80
2023-03-24T01:43:35.425Z,15.00
2023-03-24T01:46:22.739Z,15.00
2023-03-24T01:49:10.227Z,14.90
2023-03-24T01:51:59.727Z,14.70
2023-03-24T01:54:51.079Z,14.90
2023-03-24T01:57:39.932Z,14.90
2023-03-24T02:00:26.618Z,14.70
2023-03-24T02:03:34.806Z,14.80
2023-03-24T02:06:23.474Z,14.80
2023-03-24T02:09:10.439Z,15.00
2023-03-24T02:11:57.998Z,15.10
2023-03-24T02:14:43.694Z,15.00
2023-03-24T02:17:51.843Z,15.00
2023-03-24T02:21:01.196Z,15.00
2023-03-24T02:24:36.731Z,15.10
2023-03-24T02:27:48.840Z,15.00
2023-03-24T02:31:00.008Z,14.80
2023-03-24T02:34:22.201Z,14.90
2023-03-24T02:37:32.663Z,14.80
2023-03-24T02:40:31.399Z,14.70
2023-03-24T02:43:32.570Z,14.70
2023-03-24T02:46:25.306Z,14.70
2023-03-24T02:49:17.113Z,14.80
2023-03-24T02:52:07.955Z,15.00
2023-03-24T02:55:01.542Z,15.10
2023-03-24T02:57:53.108Z,14.80
2023-03-24T03:01:04.637Z,14.60
2023-03-24T03:04:12.524Z,14.60
2023-03-24T03:07:00.985Z,14.50
2023-03-24T03:09:51.915Z,14.30
2023-03-24T03:12:40.184Z,14.10
2023-03-24T03:15:32.535Z,14.30
2023-03-24T03:18:24.064Z,14.10
2023-03-24T03:21:11.805Z,13.80
2023-03-24T03:24:02.120Z,14.00
2023-03-24T03:26:50.030Z,14.30
2023-03-24T03:29:39.977Z,14.20
2023-03-24T03:32:29.900Z,14.40
2023-03-24T03:35:19.801Z,14.40
2023-03-24T03:38:15.703Z,14.00
2023-03-24T03:41:04.622Z,14.10
2023-03-24T03:43:54.769Z,14.00
2023-03-24T03:46:41.030Z,13.90
2023-03-24T03:49:37.656Z,13.60
2023-03-24T03:52:23.377Z,13.60
2023-03-24T03:55:11.927Z,13.40
2023-03-24T03:57:58.793Z,13.40
2023-03-24T04:00:55.823Z,13.70
2023-03-24T04:04:20.258Z,13.60
2023-03-24T04:07:40.015Z,13.60
2023-03-24T04:11:33.063Z,13.70
2023-03-24T04:14:41.801Z,13.60
2023-03-24T04:18:03.095Z,13.80
2023-03-24T04:21:18.455Z,13.60
2023-03-24T04:24:27.502Z,13.70
2023-03-24T04:27:22.070Z,13.70
2023-03-24T04:30:16.853Z,13.70
2023-03-24T04:33:07.115Z,13.70
2023-03-24T04:36:01.705Z,13.90
2023-03-24T04:38:59.456Z,13.70
2023-03-24T04:41:55.317Z,13.20
2023-03-24T04:44:45.533Z,13.30
2023-03-24T04:47:54.451Z,13.00
2023-03-24T04:50:57.086Z,13.10
2023-03-24T04:53:44.633Z,13.20
2023-03-24T04:56:37.134Z,13.40
2023-03-24T04:59:27.151Z,13.30
2023-03-24T05:02:13.814Z,13.10
2023-03-24T05:05:11.064Z,13.00
2023-03-24T05:08:02.565Z,13.10
2023-03-24T05:10:48.454Z,13.00
2023-03-24T05:13:34.382Z,13.00
2023-03-24T05:16:23.106Z,13.20
2023-03-24T05:19:17.187Z,13.00
2023-03-24T05:22:03.286Z,13.00
2023-03-24T05:24:49.737Z,12.90
2023-03-24T05:27:35.486Z,12.80
2023-03-24T05:30:32.600Z,12.60
2023-03-24T05:33:29.075Z,12.60
2023-03-24T05:36:16.930Z,12.60
2023-03-24T05:39:09.433Z,12.70
2023-03-24T05:42:09.158Z,13.00
2023-03-24T05:44:54.772Z,13.10
2023-03-24T05:47:47.175Z,13.10
2023-03-24T05:50:35.313Z,13.20
2023-03-24T05:53:20.991Z,13.50
2023-03-24T05:56:35.655Z,13.30
2023-03-24T05:59:30.937Z,13.20
2023-03-24T06:02:42.800Z,13.30
2023-03-24T06:05:45.901Z,13.20
2023-03-24T06:08:34.100Z,13.50
2023-03-24T06:11:21.286Z,13.40
2023-03-24T06:14:14.805Z,13.70
2023-03-24T06:17:17.816Z,13.70
2023-03-24T06:20:13.936Z,13.70
2023-03-24T06:23:25.983Z,13.90
2023-03-24T06:26:22.131Z,14.10
2023-03-24T06:29:18.076Z,14.00
2023-03-24T06:32:05.627Z,13.90
2023-03-24T06:34:57.171Z,14.30
2023-03-24T06:37:59.681Z,14.30
2023-03-24T06:40:46.950Z,14.30
2023-03-24T06:43:33.587Z,14.00
2023-03-24T06:46:19.248Z,13.90
2023-03-24T06:49:06.190Z,13.70
2023-03-24T06:51:52.340Z,13.80
2023-03-24T06:54:40.548Z,13.80
2023-03-24T06:57:29.260Z,14.20
2023-03-24T07:00:34.776Z,14.30
2023-03-24T07:03:42.796Z,14.10
2023-03-24T07:07:02.075Z,14.30
2023-03-24T07:09:56.615Z,14.20
2023-03-24T07:12:43.778Z,14.10
2023-03-24T07:15:29.665Z,14.60
2023-03-24T07:18:16.088Z,14.80
2023-03-24T07:21:04.211Z,14.90
2023-03-24T07:23:51.068Z,14.70
2023-03-24T07:26:40.538Z,14.70
2023-03-24T07:29:34.374Z,14.70
2023-03-24T07:32:39.200Z,14.70
2023-03-24T07:35:25.093Z,14.70
2023-03-24T07:38:10.898Z,14.70
2023-03-24T07:40:58.400Z,15.20
2023-03-24T07:43:44.932Z,14.90
2023-03-24T07:46:53.442Z,15.00
2023-03-24T07:49:41.767Z,15.20
2023-03-24T07:52:30.323Z,15.60
2023-03-24T07:55:16.801Z,16.00
2023-03-24T07:58:13.341Z,16.30
2023-03-24T08:01:07.384Z,16.90
2023-03-24T08:04:00.739Z,17.10
2023-03-24T08:07:19.538Z,17.10
2023-03-24T08:10:06.648Z,17.20
2023-03-24T08:12:52.865Z,17.70
2023-03-24T08:15:38.757Z,17.80
2023-03-24T08:18:25.358Z,18.00
2023-03-24T08:21:12.162Z,17.70
2023-03-24T08:23:57.720Z,17.20
2023-03-24T08:26:46.620Z,17.10
2023-03-24T08:29:34.613Z,17.40
2023-03-24T08:32:20.422Z,17.30
2023-03-24T08:35:06.616Z,17.50
2023-03-24T08:37:54.017Z,18.00
2023-03-24T08:40:41.813Z,18.20
2023-03-24T08:43:28.363Z,17.90
2023-03-24T08:46:15.540Z,18.00
2023-03-24T08:49:01.104Z,18.10
2023-03-24T08:51:47.316Z,18.40
2023-03-24T08:54:34.493Z,18.70
2023-03-24T08:57:21.619Z,19.50
2023-03-24T09:00:14.843Z,19.40
2023-03-24T09:03:01.188Z,19.80
2023-03-24T09:05:47.825Z,20.20
2023-03-24T09:08:33.752Z,20.00
2023-03-24T09:11:21.982Z,20.10
2023-03-24T09:14:07.835Z,19.90
2023-03-24T09:16:53.134Z,18.60
2023-03-24T09:19:39.240Z,17.90
2023-03-24T09:22:25.080Z,17.50
2023-03-24T09:25:13.397Z,17.40
2023-03-24T09:28:01.742Z,17.80
2023-03-24T09:30:48.580Z,18.60
2023-03-24T09:33:35.008Z,19.20
2023-03-24T09:36:21.136Z,19.90
2023-03-24T09:39:07.037Z,20.00
2023-03-24T09:41:52.537Z,19.60
2023-03-24T09:44:43.309Z,19.30
2023-03-24T09:47:30.987Z,19.00
2023-03-24T09:50:23.161Z,19.70
2023-03-24T09:53:19.725Z,20.00
2023-03-24T09:56:12.835Z,20.40
2023-03-24T09:59:05.357Z,20.90
2023-03-24T10:01:52.550Z,20.80
2023-03-24T10:04:38.386Z,21.10
2023-03-24T10:07:29.672Z,21.70
2023-03-24T10:10:23.197Z,21.80
2023-03-24T10:13:19.533Z,21.50
2023-03-24T10:16:11.223Z,20.90
2023-03-24T10:19:10.991Z,21.30
2023-03-24T10:22:04.133Z,22.60
2023-03-24T10:24:57.323Z,23.90
2023-03-24T10:27:48.888Z,23.00
2023-03-24T10:30:39.555Z,23.10
2023-03-24T10:33:25.181Z,23.30
2023-03-24T10:36:18.375Z,22.70
2023-03-24T10:39:18.323Z,21.60
2023-03-24T10:42:07.285Z,20.70
2023-03-24T10:44:53.951Z,20.20
2023-03-24T10:47:40.588Z,20.70
2023-03-24T10:50:29.256Z,20.40
2023-03-24T10:53:20.711Z,19.90
2023-03-24T10:56:07.190Z,19.30
2023-03-24T10:58:53.023Z,19.20
2023-03-24T11:01:38.962Z,19.30
2023-03-24T11:04:25.330Z,19.10
2023-03-24T11:07:36.578Z,19.10
2023-03-24T11:10:26.643Z,19.10
2023-03-24T11:13:18.984Z,18.30
2023-03-24T11:16:10.622Z,16.90
2023-03-24T11:18:59.461Z,16.20
2023-03-24T11:21:45.779Z,16.50
2023-03-24T11:24:36.524Z,16.40
2023-03-24T11:27:23.793Z,16.50
2023-03-24T11:30:13.518Z,16.60
2023-03-24T11:32:59.753Z,16.70
2023-03-24T11:35:56.003Z,16.90
2023-03-24T11:38:59.343Z,17.10
2023-03-24T11:41:52.849Z,16.90
2023-03-24T11:44:48.929Z,16.80
2023-03-24T11:47:38.547Z,16.70
2023-03-24T11:50:28.965Z,16.70
2023-03-24T11:53:20.020Z,16.30
2023-03-24T11:56:12.889Z,16.10
2023-03-24T11:59:07.821Z,15.80
2023-03-24T12:02:01.375Z,15.50
2023-03-24T12:05:03.057Z,15.00
2023-03-24T12:08:04.072Z,14.60
2023-03-24T12:11:03.937Z,14.10
2023-03-24T12:13:50.602Z,14.10
2023-03-24T12:16:51.842Z,14.00
2023-03-24T12:19:44.848Z,13.90
2023-03-24T12:22:41.370Z,14.10
2023-03-24T12:25:42.657Z,14.30
2023-03-24T12:28:39.535Z,14.60
2023-03-24T12:31:55.049Z,14.70
2023-03-24T12:35:09.496Z,14.90
2023-03-24T12:38:06.018Z,15.50
2023-03-24T12:41:11.283Z,16.70
2023-03-24T12:44:16.484Z,17.50
2023-03-24T12:47:12.123Z,18.00
2023-03-24T12:50:17.499Z,19.00
2023-03-24T12:53:16.287Z,20.20
2023-03-24T12:56:10.322Z,20.60
2023-03-24T12:58:59.717Z,20.30
2023-03-24T13:01:50.164Z,20.00
2023-03-24T13:04:39.812Z,19.20
2023-03-24T13:07:28.701Z,18.20
2023-03-24T13:10:20.333Z,17.40
2023-03-24T13:13:12.840Z,16.70
2023-03-24T13:16:01.875Z,16.40
2023-03-24T13:18:52.489Z,16.30
2023-03-24T13:21:38.515Z,15.60
2023-03-24T13:24:26.265Z,15.50
2023-03-24T13:27:20.591Z,15.10
2023-03-24T13:30:31.325Z,14.90
2023-03-24T13:33:21.223Z,15.20
2023-03-24T13:36:22.324Z,15.60
2023-03-24T13:39:14.366Z,16.10
2023-03-24T13:42:02.983Z,16.70
2023-03-24T13:44:49.418Z,16.80
2023-03-24T13:47:49.716Z,16.70
2023-03-24T13:50:39.365Z,17.00
2023-03-24T13:53:36.877Z,17.00
2023-03-24T13:56:26.131Z,16.60
2023-03-24T13:59:28.317Z,16.00
2023-03-24T14:02:39.954Z,15.00
2023-03-24T14:05:48.261Z,14.70
2023-03-24T14:08:43.809Z,14.50
2023-03-24T14:11:45.509Z,14.60
2023-03-24T14:14:34.730Z,14.50
2023-03-24T14:17:22.101Z,14.40
2023-03-24T14:20:23.460Z,14.20
2023-03-24T14:23:19.528Z,14.00
2023-03-24T14:26:07.737Z,14.00
2023-03-24T14:28:54.460Z,13.50
2023-03-24T14:31:41.736Z,13.50
2023-03-24T14:34:28.693Z,14.00
2023-03-24T14:37:16.529Z,14.40
2023-03-24T14:40:02.485Z,14.70
2023-03-24T14:42:55.381Z,14.70
2023-03-24T14:46:00.325Z,14.70
2023-03-24T14:48:57.369Z,14.80
2023-03-24T14:51:45.898Z,14.80
2023-03-24T14:54:37.827Z,14.70
2023-03-24T14:57:26.736Z,15.00
2023-03-24T15:00:21.471Z,15.30
2023-03-24T15:03:18.884Z,15.30
2023-03-24T15:06:12.881Z,15.50
2023-03-24T15:09:01.350Z,15.70
2023-03-24T15:11:48.297Z,15.70
2023-03-24T15:14:36.815Z,15.90
2023-03-24T15:17:23.889Z,16.10
2023-03-24T15:20:22.234Z,15.90
2023-03-24T15:23:16.684Z,15.90
2023-03-24T15:26:02.709Z,16.00
2023-03-24T15:28:53.967Z,16.20
2023-03-24T15:31:40.719Z,16.40
2023-03-24T15:34:28.386Z,16.40
2023-03-24T15:37:21.356Z,16.40
2023-03-24T15:40:33.734Z,16.20
2023-03-24T15:43:21.741Z,16.20
2023-03-24T15:46:26.318Z,16.20
2023-03-24T15:49:21.530Z,16.20
2023-03-24T15:52:29.613Z,16.30
2023-03-24T15:55:24.099Z,16.20
2023-03-24T15:58:26.588Z,16.00
2023-03-24T16:01:14.489Z,16.00
2023-03-24T16:04:02.244Z,15.90
2023-03-24T16:06:51.592Z,15.80
2023-03-24T16:09:40.936Z,15.90
2023-03-24T16:12:26.651Z,16.30
2023-03-24T16:15:14.633Z,16.40
2023-03-24T16:18:00.897Z,16.40
2023-03-24T16:20:46.609Z,16.80
2023-03-24T16:23:32.625Z,16.60
2023-03-24T16:26:19.530Z,16.80
2023-03-24T16:29:17.514Z,16.90
2023-03-24T16:32:05.129Z,16.90
2023-03-24T16:34:50.940Z,16.80
2023-03-24T16:37:36.503Z,16.60
2023-03-24T16:40:31.146Z,16.40
2023-03-24T16:43:16.946Z,16.20
2023-03-24T16:46:05.544Z,16.20
2023-03-24T16:48:54.083Z,16.10
2023-03-24T16:51:39.887Z,16.30
2023-03-24T16:54:25.883Z,16.50
2023-03-24T16:57:11.929Z,16.50
2023-03-24T17:00:01.127Z,16.20
2023-03-24T17:02:48.490Z,16.30
2023-03-24T17:05:41.256Z,16.40
2023-03-24T17:08:26.768Z,16.40
2023-03-24T17:11:12.724Z,16.30
2023-03-24T17:14:04.840Z,16.20
2023-03-24T17:16:52.683Z,16.20
2023-03-24T17:19:39.247Z,16.10
2023-03-24T17:22:26.661Z,16.00
2023-03-24T17:25:13.976Z,16.10
2023-03-24T17:27:59.659Z,16.10
2023-03-24T17:30:45.778Z,16.10
2023-03-24T17:33:31.690Z,16.20
2023-03-24T17:36:17.534Z,16.00
2023-03-24T17:39:05.332Z,16.10
2023-03-24T17:41:51.153Z,15.90
2023-03-24T17:44:37.823Z,15.90
2023-03-24T17:47:23.676Z,15.70
2023-03-24T17:50:10.298Z,15.40
2023-03-24T17:52:55.965Z,15.60
2023-03-24T17:55:45.573Z,15.50
2023-03-24T17:58:33.004Z,15.60
2023-03-24T18:01:21.218Z,15.70
2023-03-24T18:04:07.120Z,15.80
2023-03-24T18:06:53.004Z,15.70
2023-03-24T18:09:39.218Z,15.60
2023-03-24T18:12:27.465Z,15.50
2023-03-24T18:15:13.193Z,15.70
2023-03-24T18:17:58.867Z,15.70
2023-03-24T18:20:44.860Z,15.60
2023-03-24T18:23:31.908Z,15.40
2023-03-24T18:26:18.191Z,15.30
2023-03-24T18:29:05.859Z,15.30
2023-03-24T18:31:51.806Z,14.80
2023-03-24T18:34:38.914Z,14.60
2023-03-24T18:37:25.106Z,14.50
2023-03-24T18:40:12.141Z,14.70
2023-03-24T18:42:57.817Z,14.40
2023-03-24T18:45:45.305Z,14.50
2023-03-24T18:48:31.222Z,14.60
2023-03-24T18:51:17.070Z,14.50
2023-03-24T18:54:03.225Z,14.30
2023-03-24T18:56:49.257Z,14.30
2023-03-24T18:59:34.863Z,14.30
2023-03-24T19:02:22.222Z,14.20
2023-03-24T19:05:10.114Z,14.10
2023-03-24T19:07:55.729Z,14.20
2023-03-24T19:10:43.209Z,14.30
2023-03-24T19:13:29.012Z,14.20
2023-03-24T19:16:15.327Z,14.40
2023-03-24T19:19:02.688Z,14.20
2023-03-24T19:21:49.207Z,14.10
2023-03-24T19:24:34.861Z,14.10
2023-03-24T19:27:21.213Z,14.20
2023-03-24T19:30:09.024Z,14.20
2023-03-24T19:32:55.233Z,14.10
2023-03-24T19:35:42.549Z,13.90
2023-03-24T19:38:29.157Z,13.70
2023-03-24T19:41:15.907Z,13.40
2023-03-24T19:44:01.800Z,13.40
2023-03-24T19:46:47.398Z,13.30
2023-03-24T19:49:33.387Z,13.60
2023-03-24T19:52:20.713Z,13.60
2023-03-24T19:55:06.977Z,13.50
2023-03-24T19:57:52.980Z,13.50
2023-03-24T20:00:40.193Z,13.70
2023-03-24T20:03:25.903Z,13.60
2023-03-24T20:06:11.966Z,13.60
2023-03-24T20:08:59.158Z,13.40
2023-03-24T20:11:44.915Z,13.20
2023-03-24T20:14:33.787Z,13.40
2023-03-24T20:17:21.983Z,13.20
2023-03-24T20:20:10.369Z,13.30
2023-03-24T20:22:57.309Z,13.40
2023-03-24T20:25:44.592Z,13.30
2023-03-24T20:28:30.809Z,13.10
2023-03-24T20:31:17.421Z,12.90
2023-03-24T20:34:03.679Z,13.10
2023-03-24T20:36:49.625Z,13.20
2023-03-24T20:39:35.672Z,13.00
2023-03-24T20:42:24.506Z,13.00
2023-03-24T20:45:11.615Z,13.00
2023-03-24T20:47:57.472Z,12.90
2023-03-24T20:50:43.616Z,13.00
2023-03-24T20:53:32.721Z,13.00
2023-03-24T20:56:19.048Z,12.90
2023-03-24T20:59:07.028Z,13.20
2023-03-24T21:01:52.824Z,13.00
2023-03-24T21:04:38.741Z,13.00
2023-03-24T21:07:24.771Z,13.00
2023-03-24T21:10:11.445Z,13.20
2023-03-24T21:12:57.147Z,13.10
2023-03-24T21:15:45.435Z,13.10
2023-03-24T21:18:32.422Z,12.80
2023-03-24T21:21:18.054Z,12.70
2023-03-24T21:24:04.402Z,12.90
2023-03-24T21:26:51.148Z,13.10
2023-03-24T21:29:36.693Z,13.20
2023-03-24T21:32:23.992Z,13.00
2023-03-24T21:35:11.464Z,13.20
2023-03-24T21:37:57.412Z,13.20
2023-03-24T21:40:43.165Z,13.10
2023-03-24T21:43:30.384Z,13.00
2023-03-24T21:46:20.549Z,13.10
2023-03-24T21:49:11.047Z,13.10
2023-03-24T21:51:57.284Z,13.10
2023-03-24T21:54:43.560Z,13.10
2023-03-24T21:57:29.173Z,13.00
2023-03-24T22:00:16.925Z,12.60
2023-03-24T22:03:03.688Z,12.70
2023-03-24T22:05:51.638Z,12.90
2023-03-24T22:08:38.995Z,12.70
2023-03-24T22:11:25.058Z,12.70
2023-03-24T22:14:12.432Z,12.60
2023-03-24T22:16:58.663Z,12.80
2023-03-24T22:19:44.585Z,12.90
2023-03-24T22:22:32.702Z,13.00
2023-03-24T22:25:19.437Z,12.80
2023-03-24T22:28:05.307Z,12.80
2023-03-24T22:30:51.069Z,12.70
2023-03-24T22:33:37.625Z,12.80
2023-03-24T22:36:23.240Z,13.00
2023-03-24T22:39:10.348Z,12.90
2023-03-24T22:41:56.983Z,12.70
2023-03-24T22:44:42.667Z,12.90
2023-03-24T22:47:29.174Z,12.70
2023-03-24T22:50:15.272Z,12.80
2023-03-24T22:53:01.396Z,12.90
2023-03-24T22:55:48.798Z,12.80
2023-03-24T22:58:35.714Z,12.60
2023-03-24T23:01:21.475Z,12.50
2023-03-24T23:04:07.529Z,12.80
2023-03-24T23:06:55.089Z,12.90
2023-03-24T23:09:43.082Z,13.00
2023-03-24T23:12:30.292Z,13.00
2023-03-24T23:15:17.977Z,13.00
2023-03-24T23:18:04.068Z,13.10
2023-03-24T23:20:50.012Z,12.90
2023-03-24T23:23:36.427Z,13.00
2023-03-24T23:26:25.443Z,12.90
2023-03-24T23:29:13.994Z,12.80
2023-03-24T23:31:59.604Z,12.80
2023-03-24T23:34:48.659Z,12.70
2023-03-24T23:37:35.458Z,12.90
2023-03-24T23:40:21.393Z,12.90
2023-03-24T23:43:07.242Z,12.80
2023-03-24T23:45:56.432Z,13.00
2023-03-24T23:48:42.158Z,13.00
2023-03-24T23:51:28.623Z,13.30
2023-03-24T23:54:14.155Z,13.20
2023-03-24T23:57:00.508Z,13.40
2023-03-24T23:59:49.465Z,13.50
